KAST/AST METAR and TAF weather

Enter ICAO airport designator
Station Type Date Time Source
KAST METAR 2020/02/21 14:55 UTC NOAA

KAST 211455Z AUTO 00000KT 10SM CLR M02/M03 A3021 RMK AO2 SLP230 I1000 I3000 T10221028 50000


Station Type Date Time Source
KAST Decoded METAR 2020/02/21 14:55 UTC NOAA

PORT OF ASTORIA AIRPORT, OR, United States (KAST) 46-09N 123-53W 3M
Feb 21, 2020 - 09:55 AM EST / 2020.02.21 1455 UTC
Wind: Calm:0
Visibility: 10 mile(s):0
Sky conditions: clear
Temperature: 28.0 F (-2.2 C)
Dew Point: 27.0 F (-2.8 C)
Relative Humidity: 95%
Pressure (altimeter): 30.21 in. Hg (1023 hPa)
Pressure tendency: 0.00 inches (0.0 hPa) higher than three hours ago
ob: KAST 211455Z AUTO 00000KT 10SM CLR M02/M03 A3021 RMK AO2 SLP230 I1000 I3000 T10221028 50000
cycle: 15

Station Type Date Time Source
KAST TAF 2020/02/21 12:33 UTC NOAA

TAF KAST 211131Z 2112/2212 13005KT P6SM SKC
FM212100 29004KT 5SM HZ SCT004
FM220400 26003KT 3SM BR BKN004
FM220800 17002KT P6SM SCT010 OVC100
FM221000 21002KT P6SM OVC050

Example: see airport list